Time;durP1;ratioP1;P1;durP2;ratioP2;P2;SDS_P1;SDS_P2;PMS_P1;PMS_P2;Temp;Humidity;BMP_temperature;BMP_pressure;BME280_temperature;BME280_humidity;BME280_pressure;Samples;Min_cycle;Max_cycle;Signal;HPM_P1;HPM_P2
2022/07/03 00:00:17;;;;;;;3.75;2.13;;;17.60;99.90;;;;;;5081941;28;20055;-71
2022/07/03 00:02:43;;;;;;;2.22;1.60;;;17.60;99.90;;;;;;5049132;28;20044;-71
2022/07/03 00:05:09;;;;;;;3.10;1.80;;;17.60;99.90;;;;;;5048975;28;20376;-71
2022/07/03 00:07:38;;;;;;;3.42;1.95;;;17.50;99.90;;;;;;5047853;28;20111;-71
2022/07/03 00:10:04;;;;;;;3.03;2.72;;;17.50;99.90;;;;;;5082466;28;20040;-71
2022/07/03 00:12:30;;;;;;;5.63;3.03;;;17.50;99.90;;;;;;5046595;28;20037;-71
2022/07/03 00:14:56;;;;;;;4.03;2.83;;;17.40;99.90;;;;;;5084011;28;20032;-71
2022/07/03 00:17:21;;;;;;;3.92;2.90;;;17.40;99.90;;;;;;5049557;28;20064;-71
2022/07/03 00:19:48;;;;;;;3.95;2.40;;;17.30;99.90;;;;;;5080517;28;20041;-71
2022/07/03 00:22:14;;;;;;;4.53;2.90;;;17.30;99.90;;;;;;5047817;28;20036;-71
2022/07/03 00:24:45;;;;;;;4.47;2.50;;;17.20;99.90;;;;;;5045615;28;20041;-71
2022/07/03 00:27:11;;;;;;;6.28;2.70;;;17.20;99.90;;;;;;5045367;28;20123;-71
2022/07/03 00:29:41;;;;;;;5.10;2.88;;;17.20;99.90;;;;;;5048911;28;20049;-71
2022/07/03 00:32:09;;;;;;;4.60;2.40;;;17.20;99.90;;;;;;5050528;28;20863;-71
2022/07/03 00:34:36;;;;;;;3.00;2.20;;;17.20;99.90;;;;;;5032044;28;20045;-71
2022/07/03 00:37:04;;;;;;;3.33;2.55;;;17.10;99.90;;;;;;5082545;28;20070;-71
2022/07/03 00:39:30;;;;;;;3.20;2.28;;;17.10;99.90;;;;;;5061618;28;20542;-71
2022/07/03 00:42:04;;;;;;;3.95;2.80;;;17.10;99.90;;;;;;5046846;28;20075;-71
2022/07/03 00:44:32;;;;;;;4.38;2.92;;;17.00;99.90;;;;;;5047988;28;20044;-71
2022/07/03 00:47:00;;;;;;;3.45;2.83;;;16.90;99.90;;;;;;5080176;28;20053;-71
2022/07/03 00:49:27;;;;;;;4.97;3.22;;;16.90;99.90;;;;;;5049097;28;20132;-71
2022/07/03 00:51:53;;;;;;;5.30;3.70;;;16.80;99.90;;;;;;5049116;28;20507;-71
2022/07/03 00:54:22;;;;;;;4.22;3.60;;;16.70;99.90;;;;;;5049238;28;20048;-71
2022/07/03 00:56:54;;;;;;;4.30;3.08;;;16.70;99.90;;;;;;5047335;28;20033;-71
2022/07/03 00:59:20;;;;;;;5.25;3.38;;;16.60;99.90;;;;;;5046379;28;20040;-71
2022/07/03 01:01:49;;;;;;;5.13;3.25;;;16.60;99.90;;;;;;5046781;28;20112;-71
2022/07/03 01:04:41;;;;;;;5.45;2.92;;;16.60;99.90;;;;;;5042774;28;20041;-71
2022/07/03 01:07:16;;;;;;;4.38;3.33;;;16.50;99.90;;;;;;5046477;28;20047;-71
2022/07/03 01:09:53;;;;;;;5.82;3.33;;;16.40;99.90;;;;;;5064180;28;20044;-71
2022/07/03 01:12:33;;;;;;;4.63;2.88;;;16.40;99.90;;;;;;5079139;28;20048;-71
2022/07/03 01:15:11;;;;;;;6.00;3.17;;;16.30;99.90;;;;;;5060779;28;20095;-71
2022/07/03 01:17:52;;;;;;;3.78;3.10;;;16.30;99.90;;;;;;5046922;28;20036;-70
2022/07/03 01:20:27;;;;;;;4.65;2.80;;;16.20;99.90;;;;;;5048510;28;20064;-70
2022/07/03 01:22:59;;;;;;;;;;;16.10;99.90;;;;;;5047993;28;20045;-71
2022/07/03 01:25:38;;;;;;;3.70;2.83;;;16.10;99.90;;;;;;5046816;28;19920;-70
2022/07/03 01:28:19;;;;;;;4.60;3.13;;;16.00;99.90;;;;;;5045981;28;20120;-70
2022/07/03 01:30:53;;;;;;;3.30;2.90;;;16.00;99.90;;;;;;5084017;28;20637;-70
2022/07/03 01:33:22;;;;;;;3.87;2.67;;;16.00;99.90;;;;;;5051989;28;20060;-71
2022/07/03 01:36:06;;;;;;;5.63;2.78;;;15.90;99.90;;;;;;5083539;28;20032;-71
2022/07/03 01:38:34;;;;;;;4.65;2.67;;;15.80;99.90;;;;;;5068450;28;20052;-70
2022/07/03 01:41:02;;;;;;;6.80;3.13;;;15.80;99.90;;;;;;5049747;28;20049;-70
2022/07/03 01:43:38;;;;;;;3.97;2.33;;;15.70;99.90;;;;;;5050294;28;20067;-70
2022/07/03 01:46:04;;;;;;;3.83;2.85;;;15.70;99.90;;;;;;5052966;28;20045;-70
2022/07/03 01:48:32;;;;;;;3.85;2.80;;;15.60;99.90;;;;;;5034213;28;20045;-70
2022/07/03 01:50:58;;;;;;;2.88;2.58;;;15.60;99.90;;;;;;5032320;28;20041;-70
2022/07/03 01:53:29;;;;;;;3.30;2.45;;;15.60;99.90;;;;;;5049827;28;20060;-70
2022/07/03 01:55:57;;;;;;;3.75;2.47;;;15.60;99.90;;;;;;5050386;28;20045;-70
2022/07/03 01:58:22;;;;;;;2.92;2.47;;;15.60;99.90;;;;;;5081917;28;20041;-70
2022/07/03 02:01:10;;;;;;;2.47;2.28;;;15.50;99.90;;;;;;5053315;28;20086;-70
2022/07/03 02:03:42;;;;;;;2.92;2.63;;;15.50;99.90;;;;;;5081032;28;20041;-71
2022/07/03 02:06:47;;;;;;;6.13;3.03;;;15.50;99.90;;;;;;5033884;28;20141;-70
2022/07/03 02:09:17;;;;;;;4.85;3.15;;;15.40;99.90;;;;;;5084362;28;20397;-70
2022/07/03 02:11:45;;;;;;;3.70;3.28;;;15.30;99.90;;;;;;5050124;28;20098;-70
2022/07/03 02:14:16;;;;;;;4.03;2.70;;;15.40;99.90;;;;;;5048846;28;20036;-70
2022/07/03 02:17:07;;;;;;;5.25;2.80;;;15.40;99.90;;;;;;5048124;28;20068;-70
2022/07/03 02:19:43;;;;;;;3.40;2.95;;;15.30;99.90;;;;;;5064516;28;20115;-71
2022/07/03 02:22:11;;;;;;;6.47;2.75;;;15.20;99.90;;;;;;5047054;28;20041;-70
2022/07/03 02:24:46;;;;;;;3.88;2.40;;;15.20;99.90;;;;;;5052202;28;20084;-70
2022/07/03 02:27:21;;;;;;;4.53;2.70;;;15.20;99.90;;;;;;5082057;28;20041;-70
2022/07/03 02:29:58;;;;;;;4.53;3.05;;;15.10;99.90;;;;;;5066558;28;20146;-70
2022/07/03 02:32:27;;;;;;;4.85;3.10;;;15.10;99.90;;;;;;5051962;28;20029;-70
2022/07/03 02:35:02;;;;;;;3.53;2.38;;;15.10;99.90;;;;;;5050803;28;20068;-70
2022/07/03 02:37:38;;;;;;;5.15;3.55;;;15.00;99.90;;;;;;5047001;28;20049;-70
2022/07/03 02:40:08;;;;;;;3.38;2.78;;;15.00;99.90;;;;;;5049194;28;20041;-70
2022/07/03 02:42:50;;;;;;;3.53;3.05;;;15.00;99.90;;;;;;5056316;28;20048;-70
2022/07/03 02:45:19;;;;;;;4.07;3.17;;;15.00;99.90;;;;;;5050434;28;20037;-70
2022/07/03 02:47:59;;;;;;;6.10;3.72;;;14.90;99.90;;;;;;5030412;28;20076;-70
2022/07/03 02:50:27;;;;;;;4.95;3.35;;;14.80;99.90;;;;;;5050681;28;20485;-70
2022/07/03 02:53:08;;;;;;;4.57;3.53;;;14.70;99.90;;;;;;5047471;28;20099;-70
2022/07/03 02:55:43;;;;;;;3.60;3.30;;;14.70;99.90;;;;;;5051948;28;20048;-70
2022/07/03 02:58:53;;;;;;;5.47;3.15;;;14.60;99.90;;;;;;5049098;28;20048;-70
2022/07/03 03:01:48;;;;;;;4.82;3.15;;;14.60;99.90;;;;;;5050869;28;20493;-70
2022/07/03 03:04:13;;;;;;;6.95;3.72;;;14.50;99.90;;;;;;5048015;28;20136;-70
2022/07/03 03:06:41;;;;;;;6.38;3.83;;;14.50;99.90;;;;;;5049722;28;20449;-70
2022/07/03 03:09:18;;;;;;;4.32;3.92;;;14.50;99.90;;;;;;5062369;28;20037;-70
2022/07/03 03:11:48;;;;;;;4.75;3.83;;;14.50;99.90;;;;;;5084121;28;20048;-70
2022/07/03 03:14:19;;;;;;;4.28;3.80;;;14.40;99.90;;;;;;5047226;28;20037;-70
2022/07/03 03:16:53;;;;;;;4.55;4.15;;;14.40;99.90;;;;;;5065031;28;20479;-70
2022/07/03 03:19:23;;;;;;;8.07;3.92;;;14.40;99.90;;;;;;5048901;28;20119;-70
2022/07/03 03:22:17;;;;;;;5.10;3.85;;;14.40;99.90;;;;;;5067679;28;20148;-70
2022/07/03 03:24:43;;;;;;;5.47;3.63;;;14.40;99.90;;;;;;5048211;28;20049;-70
2022/07/03 03:27:08;;;;;;;4.60;4.00;;;14.40;99.90;;;;;;5049095;28;20778;-70
2022/07/03 03:29:34;;;;;;;4.55;3.72;;;14.40;99.90;;;;;;5048594;28;20061;-70
2022/07/03 03:32:00;;;;;;;4.80;4.03;;;14.40;99.90;;;;;;5049544;28;20041;-70
2022/07/03 03:34:27;;;;;;;5.95;4.38;;;14.40;99.90;;;;;;5049245;28;20471;-70
2022/07/03 03:36:52;;;;;;;4.68;4.28;;;14.40;99.90;;;;;;5083038;28;20049;-70
2022/07/03 03:39:18;;;;;;;4.88;4.38;;;14.40;99.90;;;;;;5048510;28;20143;-70
2022/07/03 03:41:44;;;;;;;6.40;4.45;;;14.40;99.90;;;;;;5048790;28;20438;-70
2022/07/03 03:44:09;;;;;;;4.53;4.03;;;14.40;99.90;;;;;;5050701;28;20147;-70
2022/07/03 03:46:35;;;;;;;5.28;3.95;;;14.40;99.90;;;;;;5049190;28;20044;-70
2022/07/03 03:49:01;;;;;;;5.38;4.30;;;14.50;99.90;;;;;;5049046;28;20053;-70
2022/07/03 03:51:26;;;;;;;6.05;4.35;;;14.50;99.90;;;;;;5045841;28;20049;-70
2022/07/03 03:53:52;;;;;;;4.88;4.43;;;14.50;99.90;;;;;;5052509;28;20423;-70
2022/07/03 03:56:18;;;;;;;5.50;4.50;;;14.60;99.90;;;;;;5047817;28;20384;-70
2022/07/03 03:58:44;;;;;;;5.78;4.45;;;14.60;99.90;;;;;;5048041;28;20039;-70
2022/07/03 04:01:11;;;;;;;6.95;4.90;;;14.70;99.90;;;;;;5049475;28;20120;-70
2022/07/03 04:03:38;;;;;;;5.47;3.97;;;14.70;99.90;;;;;;5048944;28;20036;-70
2022/07/03 04:06:04;;;;;;;6.20;4.47;;;14.80;99.90;;;;;;5048164;28;20048;-70
2022/07/03 04:08:30;;;;;;;6.28;5.15;;;14.80;99.90;;;;;;5048976;28;20045;-70
2022/07/03 04:10:57;;;;;;;6.75;4.65;;;14.80;99.90;;;;;;5049382;28;20040;-70
2022/07/03 04:13:22;;;;;;;6.10;4.78;;;14.80;99.90;;;;;;5034223;28;20159;-70
2022/07/03 04:15:49;;;;;;;4.70;4.30;;;14.90;99.90;;;;;;5052756;28;20527;-70
2022/07/03 04:18:15;;;;;;;5.55;4.38;;;14.90;99.90;;;;;;5047693;28;20049;-70
2022/07/03 04:20:41;;;;;;;6.05;5.10;;;14.90;99.90;;;;;;5043678;28;20063;-70
2022/07/03 04:23:07;;;;;;;4.85;4.38;;;14.90;99.90;;;;;;5049799;28;20033;-70
2022/07/03 04:25:33;;;;;;;6.13;4.35;;;14.90;99.90;;;;;;5047569;28;21139;-70
2022/07/03 04:27:58;;;;;;;4.70;4.28;;;14.90;99.90;;;;;;5046965;28;20102;-70
2022/07/03 04:30:24;;;;;;;6.78;4.75;;;15.00;99.90;;;;;;5079970;28;20080;-70
2022/07/03 04:32:50;;;;;;;5.72;4.80;;;14.90;99.90;;;;;;5049344;28;20119;-70
2022/07/03 04:35:16;;;;;;;6.65;5.53;;;14.90;99.90;;;;;;5047967;28;20120;-70
2022/07/03 04:37:43;;;;;;;4.95;4.45;;;15.00;99.90;;;;;;5048879;28;20060;-70
2022/07/03 04:40:09;;;;;;;5.20;4.80;;;14.90;99.90;;;;;;5049777;28;20900;-70
2022/07/03 04:42:35;;;;;;;6.03;5.13;;;15.00;99.90;;;;;;5047115;28;20041;-70
2022/07/03 04:45:02;;;;;;;6.13;5.60;;;15.00;99.90;;;;;;5048533;28;20040;-70
2022/07/03 04:47:28;;;;;;;5.22;4.72;;;15.00;99.90;;;;;;5077499;28;20052;-70
2022/07/03 04:49:53;;;;;;;5.90;4.60;;;15.00;99.90;;;;;;5048810;28;20045;-70
2022/07/03 04:52:19;;;;;;;9.43;5.53;;;15.00;99.90;;;;;;5047796;28;20041;-70
2022/07/03 04:54:45;;;;;;;5.97;5.38;;;15.00;99.90;;;;;;5050773;28;20128;-70
2022/07/03 04:57:10;;;;;;;7.57;5.47;;;15.00;99.90;;;;;;5047412;28;20052;-70
2022/07/03 04:59:36;;;;;;;6.78;6.05;;;15.00;99.90;;;;;;5049386;28;20067;-70
2022/07/03 05:02:02;;;;;;;7.13;5.85;;;15.00;99.90;;;;;;5079042;28;20044;-70
2022/07/03 05:04:28;;;;;;;6.25;5.45;;;15.00;99.90;;;;;;5048334;28;20062;-70
2022/07/03 05:06:53;;;;;;;6.13;5.40;;;15.10;99.90;;;;;;5035798;28;20076;-70
2022/07/03 05:09:19;;;;;;;6.47;5.32;;;15.30;99.90;;;;;;5053538;28;20049;-69
2022/07/03 05:11:45;;;;;;;6.13;5.53;;;15.70;99.90;;;;;;5052159;28;20078;-69
2022/07/03 05:14:11;;;;;;;5.60;5.10;;;16.10;99.90;;;;;;5051807;28;20484;-69
2022/07/03 05:16:37;;;;;;;6.15;4.35;;;16.30;99.90;;;;;;5054426;28;20037;-69
2022/07/03 05:19:03;;;;;;;6.28;4.82;;;16.40;99.90;;;;;;5049430;28;20436;-69
2022/07/03 05:21:29;;;;;;;5.35;4.90;;;16.70;99.90;;;;;;5053011;28;20059;-69
2022/07/03 05:23:54;;;;;;;7.85;4.10;;;16.90;99.90;;;;;;5054457;28;20048;-69
2022/07/03 05:26:20;;;;;;;6.10;4.78;;;17.00;99.90;;;;;;5053339;28;20056;-69
2022/07/03 05:28:46;;;;;;;8.10;4.30;;;17.10;99.90;;;;;;5053425;28;20048;-70
2022/07/03 05:31:12;;;;;;;6.80;4.60;;;17.10;99.90;;;;;;5052177;28;20037;-70
2022/07/03 05:33:37;;;;;;;6.70;4.15;;;17.10;99.90;;;;;;5030366;28;20132;-70
2022/07/03 05:36:04;;;;;;;5.45;4.55;;;17.20;99.90;;;;;;5052567;28;20045;-70
2022/07/03 05:41:15;;;;;;;5.07;3.97;;;17.50;99.90;;;;;;5054850;28;20052;-70
2022/07/03 05:43:40;;;;;;;4.82;3.40;;;17.70;99.90;;;;;;5049258;28;20056;-70
2022/07/03 05:46:06;;;;;;;3.58;3.28;;;17.80;99.90;;;;;;5052038;28;20582;-70
2022/07/03 05:48:32;;;;;;;3.60;3.10;;;17.80;99.90;;;;;;5051200;28;20496;-70
2022/07/03 05:50:57;;;;;;;3.20;2.42;;;18.00;99.90;;;;;;5051926;28;20060;-70
2022/07/03 05:53:23;;;;;;;4.35;3.17;;;18.10;99.90;;;;;;5051019;28;20604;-70
2022/07/03 05:55:49;;;;;;;5.07;2.65;;;18.20;99.90;;;;;;5051784;28;20357;-70
2022/07/03 05:58:15;;;;;;;4.03;2.58;;;18.30;99.90;;;;;;5050752;28;20492;-70
2022/07/03 06:00:42;;;;;;;4.50;2.00;;;18.40;99.90;;;;;;5035533;28;20056;-70
2022/07/03 06:03:07;;;;;;;3.22;1.80;;;18.60;99.90;;;;;;5051377;28;20112;-70
2022/07/03 06:05:33;;;;;;;3.05;1.70;;;18.70;99.90;;;;;;5049869;28;20103;-70
2022/07/03 06:07:59;;;;;;;4.55;1.80;;;18.90;99.90;;;;;;5051672;28;20041;-70
2022/07/03 06:10:26;;;;;;;2.58;1.80;;;18.90;99.90;;;;;;5049905;28;20485;-70
2022/07/03 06:12:52;;;;;;;3.70;1.60;;;18.90;99.90;;;;;;5052050;28;20116;-70
2022/07/03 06:15:18;;;;;;;5.07;1.77;;;19.00;99.90;;;;;;5048992;28;20152;-70
2022/07/03 06:17:43;;;;;;;3.13;1.40;;;19.10;99.90;;;;;;5062866;28;20127;-70
2022/07/03 06:20:10;;;;;;;4.55;1.70;;;19.10;99.90;;;;;;5050108;28;20095;-70
2022/07/03 06:22:37;;;;;;;4.40;1.77;;;19.10;99.90;;;;;;5050737;28;20456;-70
2022/07/03 06:25:02;;;;;;;4.47;1.55;;;19.20;99.90;;;;;;5051157;28;20527;-70
2022/07/03 06:27:28;;;;;;;4.38;1.35;;;19.20;99.90;;;;;;5049112;28;20139;-70
2022/07/03 06:29:54;;;;;;;4.68;1.30;;;19.30;99.90;;;;;;5049333;28;20045;-70
2022/07/03 06:32:20;;;;;;;2.83;1.08;;;19.40;99.90;;;;;;5049997;28;20060;-70
2022/07/03 06:34:46;;;;;;;2.75;1.05;;;19.50;99.90;;;;;;5050240;28;20057;-70
2022/07/03 06:37:12;;;;;;;3.53;1.15;;;19.60;99.90;;;;;;5067075;28;20044;-70
2022/07/03 06:39:38;;;;;;;2.95;1.00;;;19.80;99.90;;;;;;5050428;28;20049;-70
2022/07/03 06:42:05;;;;;;;4.93;0.90;;;19.90;99.90;;;;;;5050939;28;20052;-70
2022/07/03 06:44:31;;;;;;;3.40;0.90;;;20.00;99.90;;;;;;5057290;28;20080;-70
2022/07/03 06:46:57;;;;;;;2.17;0.70;;;20.20;99.90;;;;;;5049192;28;20048;-70
2022/07/03 06:49:23;;;;;;;4.40;1.23;;;20.40;99.90;;;;;;5033237;28;20053;-70
2022/07/03 06:51:49;;;;;;;3.13;0.90;;;20.50;99.90;;;;;;5083385;28;20088;-70
2022/07/03 06:54:15;;;;;;;2.92;0.80;;;20.60;99.90;;;;;;5050616;28;20092;-70
2022/07/03 06:56:42;;;;;;;3.72;0.82;;;20.70;99.90;;;;;;5050071;28;20037;-70
2022/07/03 06:59:08;;;;;;;4.95;1.38;;;20.90;99.90;;;;;;5049569;28;20056;-70
2022/07/03 07:01:34;;;;;;;2.35;0.80;;;21.10;99.90;;;;;;5049405;28;20055;-70
2022/07/03 07:04:00;;;;;;;3.17;0.90;;;21.30;99.90;;;;;;5050715;28;20041;-70
2022/07/03 07:06:25;;;;;;;2.70;0.82;;;21.50;99.90;;;;;;5049272;28;20102;-70
2022/07/03 07:08:51;;;;;;;1.98;0.90;;;21.70;99.90;;;;;;5051705;28;20130;-70
2022/07/03 07:11:17;;;;;;;2.08;0.63;;;21.70;99.90;;;;;;5050485;28;20377;-70
2022/07/03 07:13:43;;;;;;;3.03;0.90;;;21.70;99.90;;;;;;5032886;28;20041;-70
2022/07/03 07:16:08;;;;;;;3.08;0.70;;;21.70;99.90;;;;;;5031777;28;20037;-70
2022/07/03 07:18:34;;;;;;;4.15;0.75;;;21.80;99.90;;;;;;5049347;28;20060;-70
2022/07/03 07:21:00;;;;;;;4.32;1.17;;;21.90;99.90;;;;;;5083050;28;20041;-70
2022/07/03 07:23:26;;;;;;;2.42;0.70;;;22.00;99.90;;;;;;5042917;28;20056;-70
2022/07/03 07:25:52;;;;;;;3.17;0.90;;;21.90;99.90;;;;;;5049070;28;20576;-70
2022/07/03 07:28:18;;;;;;;2.75;0.80;;;21.80;99.90;;;;;;5047982;28;20056;-70
2022/07/03 07:30:44;;;;;;;4.93;0.60;;;21.80;99.90;;;;;;5050000;28;20110;-70
2022/07/03 07:33:10;;;;;;;2.42;0.60;;;21.80;99.90;;;;;;5047300;28;20056;-71
2022/07/03 07:35:36;;;;;;;5.20;0.80;;;21.90;99.90;;;;;;5081167;28;20064;-74
2022/07/03 07:38:02;;;;;;;2.63;0.60;;;21.90;99.90;;;;;;5047921;28;20049;-70
2022/07/03 07:40:28;;;;;;;2.63;0.80;;;22.00;99.90;;;;;;5050979;28;20106;-70
2022/07/03 07:42:54;;;;;;;5.15;0.90;;;22.00;99.90;;;;;;5079951;28;20508;-70
2022/07/03 07:45:19;;;;;;;3.85;1.15;;;22.10;99.90;;;;;;5051472;28;20036;-70
2022/07/03 07:47:45;;;;;;;3.60;0.80;;;22.20;99.90;;;;;;5066159;28;20199;-70
2022/07/03 07:50:11;;;;;;;3.42;0.90;;;22.20;99.90;;;;;;5082925;28;20057;-71
2022/07/03 07:52:37;;;;;;;2.90;0.75;;;22.20;99.90;;;;;;5081038;28;20048;-70
2022/07/03 07:55:05;;;;;;;4.70;0.95;;;22.20;99.90;;;;;;5051037;28;20116;-70
2022/07/03 07:57:41;;;;;;;4.88;1.90;;;22.20;99.90;;;;;;5032131;28;20041;-70
2022/07/03 08:00:15;;;;;;;15.50;7.20;;;22.40;99.90;;;;;;5067362;28;20057;-70
2022/07/03 08:05:38;;;;;;;2.95;0.75;;;22.60;99.90;;;;;;5050534;28;20045;-71
2022/07/03 08:08:16;;;;;;;3.15;0.93;;;22.90;99.90;;;;;;5064536;28;20087;-71
2022/07/03 08:10:45;;;;;;;2.85;0.77;;;23.10;99.90;;;;;;5063868;28;20510;-71
2022/07/03 08:13:12;;;;;;;1.42;0.60;;;23.00;99.20;;;;;;5048862;28;20103;-71
2022/07/03 08:15:39;;;;;;;1.33;0.50;;;22.70;98.80;;;;;;5082173;28;20080;-71
2022/07/03 08:18:05;;;;;;;2.58;0.60;;;22.50;98.80;;;;;;5045742;28;20052;-71
2022/07/03 08:20:32;;;;;;;2.78;0.52;;;22.30;99.50;;;;;;5049790;28;20053;-71
2022/07/03 08:22:58;;;;;;;3.10;0.75;;;22.20;99.10;;;;;;5082055;28;20087;-71
2022/07/03 08:25:24;;;;;;;3.70;0.60;;;22.10;98.80;;;;;;5049504;28;20079;-71
2022/07/03 08:27:50;;;;;;;3.72;0.65;;;22.20;98.90;;;;;;5048063;28;20052;-71
2022/07/03 08:30:17;;;;;;;3.35;0.70;;;22.30;99.60;;;;;;5047422;28;20049;-71
2022/07/03 08:32:48;;;;;;;3.53;0.60;;;22.50;99.70;;;;;;5083526;28;20215;-71
2022/07/03 08:35:14;;;;;;;5.65;0.88;;;23.10;99.50;;;;;;5048625;28;20103;-71
2022/07/03 08:37:40;;;;;;;2.83;0.80;;;23.60;98.60;;;;;;5048736;28;20053;-71
2022/07/03 08:40:17;;;;;;;4.80;2.33;;;24.10;98.30;;;;;;5052665;28;20045;-69
2022/07/03 08:42:46;;;;;;;4.13;0.90;;;24.50;94.20;;;;;;5047167;28;20373;-66
2022/07/03 08:45:18;;;;;;;3.25;0.75;;;24.60;95.10;;;;;;5050051;28;20060;-66
2022/07/03 08:47:45;;;;;;;2.90;0.70;;;24.50;92.70;;;;;;5045954;28;20064;-67
2022/07/03 08:50:15;;;;;;;2.70;0.50;;;24.40;92.60;;;;;;5049566;28;20072;-66
2022/07/03 08:52:42;;;;;;;2.38;0.50;;;24.20;92.60;;;;;;5047212;28;20047;-66
2022/07/03 08:55:09;;;;;;;3.92;0.80;;;23.90;92.10;;;;;;5049616;28;20115;-66
2022/07/03 08:57:40;;;;;;;2.63;0.65;;;23.60;92.10;;;;;;5045998;28;20191;-66
2022/07/03 09:00:12;;;;;;;2.40;0.57;;;23.60;92.20;;;;;;5050180;28;20382;-66
2022/07/03 09:02:43;;;;;;;2.35;0.65;;;23.90;91.90;;;;;;5049692;28;20051;-66
2022/07/03 09:05:10;;;;;;;1.90;0.70;;;24.40;91.20;;;;;;5033038;28;20053;-67
2022/07/03 09:07:37;;;;;;;2.50;0.60;;;24.90;91.30;;;;;;5048619;28;20064;-66
2022/07/03 09:10:10;;;;;;;2.25;0.40;;;25.30;90.00;;;;;;5049573;28;20048;-66
2022/07/03 09:12:37;;;;;;;2.65;0.98;;;25.20;84.40;;;;;;5046335;28;20041;-67
2022/07/03 09:15:04;;;;;;;3.80;1.63;;;25.00;85.90;;;;;;5050381;28;20063;-68
2022/07/03 09:17:31;;;;;;;6.50;1.10;;;25.20;83.60;;;;;;5049357;28;20041;-67
2022/07/03 09:20:06;;;;;;;2.65;0.30;;;25.50;82.60;;;;;;5050455;28;20072;-67
2022/07/03 09:22:34;;;;;;;2.35;0.30;;;25.90;76.00;;;;;;5049724;28;20033;-67
2022/07/03 09:25:08;;;;;;;0.95;0.20;;;26.20;74.60;;;;;;5046645;28;20475;-67
2022/07/03 09:27:36;;;;;;;1.35;0.30;;;26.50;68.70;;;;;;5046965;28;20152;-68
2022/07/03 09:30:09;;;;;;;2.53;0.30;;;26.60;70.50;;;;;;5049835;28;20047;-68
2022/07/03 09:32:38;;;;;;;1.70;0.38;;;26.90;67.10;;;;;;5046021;28;20040;-68
2022/07/03 09:35:24;;;;;;;0.65;0.20;;;27.10;64.70;;;;;;5046574;28;20044;-68
2022/07/03 09:37:59;;;;;;;2.25;0.20;;;27.40;61.20;;;;;;5048586;28;20044;-68
2022/07/03 09:40:27;;;;;;;2.83;0.25;;;27.60;62.10;;;;;;5049490;28;20045;-68
2022/07/03 09:43:04;;;;;;;2.38;0.20;;;27.80;59.80;;;;;;5051226;28;20103;-68
2022/07/03 09:46:01;;;;;;;2.17;0.30;;;28.00;58.50;;;;;;5047795;28;20048;-68
2022/07/03 09:48:34;;;;;;;138.70;126.00;;;27.90;59.50;;;;;;5078465;28;20053;-68
2022/07/03 09:51:11;;;;;;;1.88;0.60;;;27.90;58.50;;;;;;5047057;28;20132;-68
2022/07/03 09:53:48;;;;;;;1.20;0.47;;;27.90;57.60;;;;;;5050195;28;20049;-68
2022/07/03 09:56:14;;;;;;;2.17;0.40;;;27.90;59.10;;;;;;5053822;28;20051;-68
2022/07/03 09:58:39;;;;;;;1.30;0.28;;;28.00;60.70;;;;;;5049942;28;20065;-68
2022/07/03 10:01:22;;;;;;;2.45;0.40;;;28.00;59.30;;;;;;5052159;28;20052;-67
2022/07/03 10:03:48;;;;;;;0.70;0.20;;;28.10;59.00;;;;;;5048599;28;20045;-68
2022/07/03 10:06:14;;;;;;;1.98;0.30;;;28.20;58.50;;;;;;5052977;28;20115;-68
2022/07/03 10:08:42;;;;;;;1.13;0.32;;;28.20;58.00;;;;;;5050087;28;20179;-73
2022/07/03 10:11:08;;;;;;;1.27;0.40;;;28.30;57.90;;;;;;5051004;28;20045;-73
2022/07/03 10:13:39;;;;;;;3.72;2.10;;;28.50;56.20;;;;;;5062800;28;20036;-73
2022/07/03 10:16:06;;;;;;;1.30;0.30;;;28.70;57.40;;;;;;5049444;28;20049;-73
2022/07/03 10:18:34;;;;;;;2.00;0.30;;;29.00;56.20;;;;;;5049743;28;20176;-73
2022/07/03 10:21:04;;;;;;;0.63;0.20;;;29.20;54.70;;;;;;5065053;28;20420;-73
2022/07/03 10:23:32;;;;;;;1.08;0.25;;;29.50;54.40;;;;;;5050214;28;20049;-73
2022/07/03 10:25:58;;;;;;;2.92;0.30;;;29.20;52.40;;;;;;5050890;28;20045;-73
2022/07/03 10:28:24;;;;;;;2.08;0.30;;;28.80;51.60;;;;;;5050484;28;20401;-73
2022/07/03 10:30:50;;;;;;;1.20;0.28;;;28.80;53.60;;;;;;5052093;28;20247;-73
2022/07/03 10:33:16;;;;;;;2.22;0.30;;;28.70;53.40;;;;;;5051941;28;20052;-73
2022/07/03 10:35:51;;;;;;;0.77;0.20;;;28.60;53.50;;;;;;5082055;28;20071;-73
2022/07/03 10:38:31;;;;;;;1.52;0.47;;;28.50;53.70;;;;;;5055896;28;20036;-73
2022/07/03 10:46:36;;;;;;;1.95;0.70;;;29.00;52.40;;;;;;5051080;28;20060;-73
2022/07/03 10:49:06;;;;;;;1.23;0.20;;;29.30;51.30;;;;;;5032660;28;20056;-73
2022/07/03 10:51:52;;;;;;;1.52;0.20;;;29.70;51.10;;;;;;5052641;28;20091;-73
2022/07/03 10:54:19;;;;;;;4.05;0.30;;;30.00;48.40;;;;;;5050127;28;20040;-73
2022/07/03 10:56:57;;;;;;;0.95;0.10;;;30.10;49.30;;;;;;5049801;28;20056;-73
2022/07/03 10:59:35;;;;;;;0.30;0.15;;;30.00;48.80;;;;;;5082886;28;20072;-73
2022/07/03 11:02:20;;;;;;;0.73;0.13;;;29.90;48.20;;;;;;5050492;28;20412;-74
2022/07/03 11:05:03;;;;;;;1.30;0.20;;;30.10;48.80;;;;;;5048396;28;20045;-73
2022/07/03 11:07:34;;;;;;;1.42;0.20;;;30.30;49.60;;;;;;5049927;28;20261;-73
2022/07/03 11:10:09;;;;;;;8.18;7.40;;;30.40;49.00;;;;;;5050163;28;20044;-74
2022/07/03 11:12:56;;;;;;;1.02;0.50;;;30.70;47.80;;;;;;5049952;28;20045;-74
2022/07/03 11:15:41;;;;;;;1.08;0.20;;;30.80;47.90;;;;;;5082250;28;20068;-73
2022/07/03 11:18:25;;;;;;;1.17;0.30;;;30.70;47.50;;;;;;5049505;28;20048;-73
2022/07/03 11:20:51;;;;;;;2.47;0.35;;;30.80;47.90;;;;;;5051265;28;20040;-73
2022/07/03 11:23:57;;;;;;;1.35;0.22;;;30.90;48.40;;;;;;5049476;28;20036;-74
2022/07/03 11:26:23;;;;;;;1.65;0.60;;;31.30;47.50;;;;;;5048267;28;20041;-74
2022/07/03 11:28:53;;;;;;;2.05;0.30;;;31.30;46.40;;;;;;5047729;28;20041;-74
2022/07/03 11:31:22;;;;;;;1.02;0.20;;;31.20;47.00;;;;;;5048744;28;20045;-74
2022/07/03 11:33:51;;;;;;;2.53;0.40;;;31.00;46.20;;;;;;5050312;28;20072;-74
2022/07/03 11:36:17;;;;;;;2.72;0.50;;;30.50;46.40;;;;;;5066023;28;20044;-74
2022/07/03 11:39:04;;;;;;;1.52;0.30;;;29.90;48.80;;;;;;5049832;28;20404;-73
2022/07/03 11:41:41;;;;;;;2.03;0.50;;;29.30;50.60;;;;;;5046589;28;20056;-73
2022/07/03 11:44:09;;;;;;;9.43;7.97;;;29.00;51.10;;;;;;5050037;28;20063;-72
2022/07/03 11:46:36;;;;;;;5.10;3.67;;;28.90;53.20;;;;;;5050989;28;20112;-73
2022/07/03 11:49:22;;;;;;;9.35;8.18;;;28.80;54.10;;;;;;5049686;28;20401;-73
2022/07/03 11:52:00;;;;;;;3.78;1.13;;;28.30;52.90;;;;;;5032152;28;20039;-73
2022/07/03 11:54:30;;;;;;;2.53;0.80;;;27.60;55.00;;;;;;5050182;28;20041;-72
2022/07/03 11:56:56;;;;;;;2.53;1.00;;;27.60;56.20;;;;;;5063818;28;20040;-72
2022/07/03 11:59:22;;;;;;;3.10;1.92;;;27.60;56.70;;;;;;5047912;28;20561;-73
2022/07/03 12:01:48;;;;;;;3.28;1.98;;;27.70;57.20;;;;;;5048635;28;20415;-73
2022/07/03 12:04:19;;;;;;;11.68;6.80;;;27.70;56.50;;;;;;5048854;28;20044;-73
2022/07/03 12:06:50;;;;;;;5.05;2.58;;;27.40;56.50;;;;;;5031501;28;20091;-72
2022/07/03 12:09:19;;;;;;;3.58;1.30;;;26.90;57.70;;;;;;5049322;28;20611;-72
2022/07/03 12:12:03;;;;;;;2.67;0.70;;;27.00;58.40;;;;;;5049180;28;20040;-72
2022/07/03 12:14:50;;;;;;;2.97;0.57;;;27.20;57.70;;;;;;5049276;28;20112;-72
2022/07/03 12:17:25;;;;;;;2.78;0.50;;;27.30;57.10;;;;;;5048580;28;20126;-72
2022/07/03 12:19:55;;;;;;;4.00;0.40;;;27.30;56.60;;;;;;5037852;28;20132;-72
2022/07/03 12:22:26;;;;;;;2.40;0.60;;;27.20;57.30;;;;;;5048580;28;20047;-72
2022/07/03 12:25:12;;;;;;;3.15;0.68;;;26.90;57.10;;;;;;5082660;28;20127;-72
2022/07/03 12:27:43;;;;;;;2.42;0.60;;;26.50;58.00;;;;;;5063986;28;20127;-72
2022/07/03 12:30:29;;;;;;;3.47;0.45;;;26.20;56.90;;;;;;5083688;28;20048;-71
2022/07/03 12:32:56;;;;;;;1.70;0.45;;;26.00;58.50;;;;;;5081831;28;20045;-72
2022/07/03 12:35:25;;;;;;;2.30;0.50;;;25.80;58.20;;;;;;5049120;28;20057;-72
2022/07/03 12:37:51;;;;;;;2.75;0.47;;;25.60;58.80;;;;;;5060357;28;20096;-72
2022/07/03 12:40:18;;;;;;;5.32;0.70;;;25.50;61.10;;;;;;5049340;28;20488;-72
2022/07/03 12:42:49;;;;;;;2.88;0.68;;;25.40;61.80;;;;;;5048825;28;20044;-72
2022/07/03 12:45:35;;;;;;;3.45;0.80;;;25.30;62.60;;;;;;5050118;28;20503;-71
2022/07/03 12:48:04;;;;;;;4.90;0.85;;;25.30;63.60;;;;;;5081557;28;20870;-72
2022/07/03 12:50:46;;;;;;;3.20;0.80;;;25.30;63.10;;;;;;5051980;28;20132;-72
2022/07/03 12:53:28;;;;;;;2.45;0.60;;;25.30;62.40;;;;;;5048858;28;20400;-72
2022/07/03 12:55:59;;;;;;;4.97;0.90;;;25.20;63.00;;;;;;5051082;28;20087;-71
2022/07/03 13:01:29;;;;;;;4.40;0.85;;;25.10;64.70;;;;;;5049597;28;20047;-72
2022/07/03 13:03:55;;;;;;;3.78;0.60;;;25.50;65.80;;;;;;5047304;28;20049;-72
2022/07/03 13:06:23;;;;;;;3.33;0.50;;;26.00;66.00;;;;;;5051091;28;20147;-71
2022/07/03 13:08:58;;;;;;;4.00;0.60;;;26.70;65.00;;;;;;5049851;28;20048;-71
2022/07/03 13:11:34;;;;;;;3.33;0.50;;;27.00;61.40;;;;;;5034442;28;20072;-72
2022/07/03 13:14:05;;;;;;;3.13;0.60;;;27.10;59.50;;;;;;5045522;28;20433;-72
2022/07/03 13:16:41;;;;;;;2.20;0.50;;;26.90;59.50;;;;;;5082720;28;20076;-71